createdAt,value
2023-04-02T00:27:13.630Z,71.32
2023-04-02T00:28:20.481Z,71.59
2023-04-02T00:29:29.990Z,71.58
2023-04-02T00:30:35.188Z,71.28
2023-04-02T00:31:45.019Z,71.28
2023-04-02T00:32:50.872Z,71.27
2023-04-02T00:33:57.617Z,71.25
2023-04-02T00:35:03.265Z,71.15
2023-04-02T00:36:11.236Z,70.79
2023-04-02T00:37:20.225Z,71.18
2023-04-02T00:38:30.699Z,70.61
2023-04-02T00:39:40.962Z,70.80
2023-04-02T00:40:47.507Z,70.51
2023-04-02T00:42:00.227Z,70.61
2023-04-02T00:43:09.035Z,70.35
2023-04-02T00:44:17.561Z,70.21
2023-04-02T00:45:26.857Z,70.18
2023-04-02T00:46:36.121Z,70.44
2023-04-02T00:47:42.158Z,70.63
2023-04-02T00:48:52.565Z,70.47
2023-04-02T00:50:02.588Z,70.44
2023-04-02T00:51:15.783Z,70.61
2023-04-02T00:52:25.692Z,70.63
2023-04-02T00:53:32.722Z,70.43
2023-04-02T00:54:45.050Z,69.54
2023-04-02T00:55:51.224Z,69.84
2023-04-02T00:56:59.638Z,69.11
2023-04-02T00:58:08.172Z,69.09
2023-04-02T00:59:23.603Z,69.31
2023-04-02T01:00:33.676Z,69.28
2023-04-02T01:01:44.103Z,68.87
2023-04-02T01:03:24.172Z,68.30
2023-04-02T01:04:34.005Z,68.91
2023-04-02T01:05:40.543Z,68.97
2023-04-02T01:06:47.551Z,69.08
2023-04-02T01:08:07.607Z,67.40
2023-04-02T01:09:22.923Z,68.72
2023-04-02T01:10:51.692Z,67.91
2023-04-02T01:12:29.930Z,68.58
2023-04-02T01:13:40.563Z,68.29
2023-04-02T01:14:57.046Z,68.98
2023-04-02T01:16:08.939Z,68.59
2023-04-02T01:17:35.493Z,68.02
2023-04-02T01:18:51.771Z,67.94
2023-04-02T01:20:13.726Z,68.26
2023-04-02T01:21:35.802Z,67.67
2023-04-02T01:22:49.567Z,67.62
2023-04-02T01:24:01.923Z,67.74
2023-04-02T01:25:10.003Z,67.95
2023-04-02T02:03:19.962Z,62.47
2023-04-02T02:04:25.194Z,62.65
2023-04-02T02:05:32.087Z,62.72
2023-04-02T02:06:37.689Z,62.22
2023-04-02T02:07:44.227Z,62.73
2023-04-02T02:08:51.572Z,62.66
2023-04-02T02:09:58.240Z,62.26
2023-04-02T02:11:03.971Z,62.32
2023-04-02T02:12:10.794Z,61.86
2023-04-02T02:13:17.682Z,61.78
2023-04-02T02:14:26.387Z,58.97
2023-04-02T02:15:33.835Z,61.14
2023-04-02T02:16:45.047Z,61.09
2023-04-02T02:17:50.736Z,61.79
2023-04-02T02:19:01.916Z,60.81
2023-04-02T02:20:12.475Z,61.31
2023-04-02T02:21:27.069Z,61.15
2023-04-02T02:22:35.298Z,61.02
2023-04-02T02:23:40.569Z,60.96
2023-04-02T02:24:47.082Z,60.93
2023-04-02T02:25:52.961Z,60.52
2023-04-02T02:27:08.044Z,58.95
2023-04-02T02:28:15.874Z,59.51
2023-04-02T02:29:23.750Z,57.95
2023-04-02T02:30:31.172Z,59.31
2023-04-02T02:31:38.253Z,59.14
2023-04-02T02:32:49.769Z,58.35
2023-04-02T02:33:59.842Z,58.55
2023-04-02T02:35:08.793Z,57.91
2023-04-02T02:36:24.301Z,56.25
2023-04-02T02:37:32.028Z,56.67
2023-04-02T02:38:53.262Z,57.66
2023-04-02T02:40:00.158Z,55.99
2023-04-02T02:41:10.351Z,55.96
2023-04-02T02:42:21.714Z,54.89
2023-04-02T02:43:27.917Z,56.56
2023-04-02T02:44:36.843Z,55.14
2023-04-02T02:45:44.017Z,55.17
2023-04-02T02:46:54.016Z,56.17
2023-04-02T02:47:59.432Z,56.01
2023-04-02T02:49:07.941Z,55.41
2023-04-02T02:50:21.328Z,54.99
2023-04-02T02:51:33.429Z,55.52
2023-04-02T02:52:39.811Z,56.46
2023-04-02T02:53:51.776Z,55.28
2023-04-02T02:54:59.001Z,56.60
2023-04-02T02:56:06.061Z,53.81
2023-04-02T02:57:13.531Z,54.48
2023-04-02T02:58:21.641Z,53.93
2023-04-02T02:59:27.302Z,55.25
2023-04-02T03:00:35.179Z,56.15
2023-04-02T03:01:40.985Z,55.29
2023-04-02T03:02:48.980Z,54.60
2023-04-02T03:03:56.520Z,55.50
2023-04-02T03:05:06.271Z,55.18
2023-04-02T03:06:13.518Z,54.41
2023-04-02T03:07:20.811Z,55.67
2023-04-02T03:08:29.859Z,55.56
2023-04-02T03:09:42.965Z,55.88
2023-04-02T03:10:53.017Z,53.83
2023-04-02T03:12:06.170Z,54.46
2023-04-02T03:13:21.166Z,52.18
2023-04-02T03:14:32.777Z,53.98
2023-04-02T03:15:43.406Z,53.46
2023-04-02T03:16:50.972Z,54.15
2023-04-02T03:17:59.808Z,53.72
2023-04-02T03:19:09.537Z,54.46
2023-04-02T03:20:20.256Z,54.99
2023-04-02T03:21:31.389Z,54.99
2023-04-02T03:22:39.908Z,55.35
2023-04-02T03:23:48.769Z,55.06
2023-04-02T03:24:58.301Z,53.79
2023-04-02T03:26:08.389Z,53.80
2023-04-02T03:27:18.309Z,54.44
2023-04-02T03:28:27.213Z,55.03
2023-04-02T03:29:34.503Z,54.39
2023-04-02T03:30:45.309Z,54.82
2023-04-02T03:31:52.649Z,55.04
2023-04-02T03:33:02.111Z,52.01
2023-04-02T03:34:11.872Z,54.25
2023-04-02T03:35:25.731Z,55.13
2023-04-02T03:36:34.816Z,55.18
2023-04-02T03:37:44.888Z,55.11
2023-04-02T03:38:54.763Z,54.45
2023-04-02T03:40:05.752Z,54.40
2023-04-02T03:41:17.267Z,54.26
2023-04-02T03:42:26.689Z,54.35
2023-04-02T03:43:43.351Z,53.65
2023-04-02T03:44:52.145Z,54.34
2023-04-02T03:46:02.335Z,54.09
2023-04-02T03:47:15.032Z,54.21
2023-04-02T03:48:23.357Z,54.16
2023-04-02T03:49:34.140Z,52.34
2023-04-02T03:50:45.424Z,53.98
2023-04-02T03:51:56.218Z,51.84
2023-04-02T03:53:01.642Z,52.99
2023-04-02T03:54:09.023Z,53.06
2023-04-02T03:55:17.341Z,52.10
2023-04-02T03:56:30.748Z,51.04
2023-04-02T20:39:49.899Z,65.94
2023-04-02T20:40:59.484Z,66.09
2023-04-02T20:42:07.719Z,65.03
2023-04-02T20:43:14.682Z,65.44
2023-04-02T20:44:22.972Z,65.02
2023-04-02T20:45:31.232Z,64.79
2023-04-02T20:46:38.211Z,64.81
2023-04-02T20:47:43.826Z,64.92
2023-04-02T20:48:50.852Z,64.19
2023-04-02T20:49:57.798Z,63.73
2023-04-02T20:51:04.591Z,63.92
2023-04-02T20:52:11.716Z,64.01
2023-04-02T20:53:17.336Z,63.60
2023-04-02T20:54:24.180Z,62.43
2023-04-02T20:55:29.688Z,62.66
2023-04-02T20:56:38.405Z,61.93
2023-04-02T20:57:45.381Z,62.29
2023-04-02T20:58:52.263Z,62.25
2023-04-02T21:00:00.352Z,62.01
2023-04-02T21:01:10.852Z,59.37
2023-04-02T21:02:17.829Z,60.76
2023-04-02T21:03:23.332Z,60.98
2023-04-02T21:04:31.908Z,60.90
2023-04-02T21:05:37.488Z,60.44
2023-04-02T21:06:45.369Z,60.28
2023-04-02T21:07:50.921Z,60.40
2023-04-02T21:08:57.807Z,59.53
2023-04-02T21:10:03.741Z,60.33
2023-04-02T21:11:10.894Z,59.99
2023-04-02T21:12:19.535Z,58.79
2023-04-02T21:13:24.993Z,59.68
2023-04-02T21:14:37.058Z,59.86
2023-04-02T21:15:44.846Z,59.77
2023-04-02T21:16:51.864Z,59.55
2023-04-02T21:17:57.695Z,60.00
2023-04-02T21:19:05.553Z,58.32
2023-04-02T21:20:12.602Z,59.32
2023-04-02T21:21:20.134Z,59.51
2023-04-02T21:22:25.869Z,59.62
2023-04-02T21:23:32.898Z,59.11
2023-04-02T21:24:38.454Z,59.21
2023-04-02T21:25:45.264Z,59.27
2023-04-02T21:26:52.125Z,59.02
2023-04-02T21:27:59.464Z,58.93
2023-04-02T21:29:06.602Z,59.22
2023-04-02T21:30:12.997Z,59.07
2023-04-02T21:31:20.861Z,59.25
2023-04-02T21:32:26.439Z,59.34
2023-04-02T21:33:33.383Z,59.06
2023-04-02T21:34:40.361Z,59.15
2023-04-02T21:35:47.254Z,58.96
2023-04-02T21:36:54.226Z,59.17
2023-04-02T21:37:59.751Z,58.74
2023-04-02T21:39:08.413Z,58.82
2023-04-02T21:40:14.302Z,58.69
2023-04-02T21:41:22.921Z,58.69
2023-04-02T21:42:29.363Z,58.92
2023-04-02T21:43:38.027Z,58.79
2023-04-02T21:44:44.910Z,58.71
2023-04-02T21:45:50.430Z,59.00
2023-04-02T21:46:57.375Z,58.37
2023-04-02T21:48:03.004Z,58.56
2023-04-02T21:49:11.129Z,58.83
2023-04-02T21:50:16.716Z,58.68
2023-04-02T21:51:25.565Z,58.55
2023-04-02T21:52:32.465Z,58.68
2023-04-02T21:53:38.014Z,58.51
2023-04-02T21:54:44.851Z,58.53
2023-04-02T21:55:50.493Z,58.56
2023-04-02T21:56:57.453Z,58.97
2023-04-02T21:58:02.953Z,58.84
2023-04-02T21:59:13.089Z,58.71
2023-04-02T22:00:20.531Z,59.08
2023-04-02T22:01:29.999Z,59.07
2023-04-02T22:02:35.464Z,58.91
2023-04-02T22:03:42.309Z,59.12
2023-04-02T22:04:47.727Z,58.90
2023-04-02T22:05:54.425Z,58.86
2023-04-02T22:06:59.785Z,59.01
2023-04-02T22:08:07.147Z,59.02
2023-04-02T22:09:14.194Z,59.01
2023-04-02T22:10:21.048Z,58.97
2023-04-02T22:11:27.551Z,58.71
2023-04-02T22:12:34.454Z,58.97
2023-04-02T22:13:40.255Z,58.87
2023-04-02T22:14:48.749Z,58.92
2023-04-02T22:15:54.064Z,59.09
2023-04-02T22:17:01.514Z,59.26
2023-04-02T22:18:07.243Z,58.88
2023-04-02T22:19:16.184Z,59.14
2023-04-02T22:20:21.589Z,59.26
2023-04-02T22:21:28.709Z,59.15
2023-04-02T22:22:34.390Z,59.17
2023-04-02T22:23:41.318Z,59.29
2023-04-02T22:24:46.708Z,59.26
2023-04-02T22:25:53.416Z,59.25
2023-04-02T22:27:00.139Z,59.32
2023-04-02T22:28:05.529Z,59.32
2023-04-02T22:29:12.297Z,59.14
2023-04-02T22:30:19.721Z,59.29
2023-04-02T22:31:28.225Z,59.23
2023-04-02T22:32:33.708Z,59.18
2023-04-02T22:33:40.525Z,59.15
2023-04-02T22:34:47.128Z,59.36
2023-04-02T22:35:54.743Z,59.22
2023-04-02T22:37:00.179Z,59.31
2023-04-02T22:38:06.880Z,59.42
2023-04-02T22:39:13.725Z,59.46
2023-04-02T22:40:21.661Z,59.54
2023-04-02T22:41:28.948Z,59.69
2023-04-02T22:42:37.454Z,59.65
2023-04-02T22:43:44.378Z,59.50
2023-04-02T22:44:51.102Z,59.71
2023-04-02T22:45:58.312Z,59.81
2023-04-02T22:47:05.050Z,59.65
2023-04-02T22:48:10.455Z,59.81
2023-04-02T22:49:20.454Z,59.94
2023-04-02T22:50:26.344Z,59.98
2023-04-02T22:51:33.745Z,60.09
2023-04-02T22:52:39.193Z,60.20
2023-04-02T22:53:47.046Z,60.03
2023-04-02T22:54:52.405Z,60.33
2023-04-02T22:55:59.233Z,60.18
2023-04-02T22:57:05.033Z,60.16
2023-04-02T22:58:11.764Z,60.34
2023-04-02T22:59:17.289Z,60.43
2023-04-02T23:00:24.596Z,60.49
2023-04-02T23:01:33.233Z,60.46
2023-04-02T23:02:39.994Z,60.62
2023-04-02T23:03:45.562Z,60.64
2023-04-02T23:04:52.269Z,60.61
2023-04-02T23:06:04.423Z,60.91
2023-04-02T23:07:11.247Z,60.74
2023-04-02T23:08:16.635Z,60.81
2023-04-02T23:09:23.467Z,60.93
2023-04-02T23:10:29.160Z,60.96
2023-04-02T23:11:37.539Z,61.15
2023-04-02T23:12:42.902Z,61.23
2023-04-02T23:13:51.481Z,61.34
2023-04-02T23:14:58.644Z,61.29
2023-04-02T23:16:06.157Z,61.26
2023-04-02T23:17:13.270Z,61.58
2023-04-02T23:18:19.923Z,61.54
2023-04-02T23:19:25.215Z,61.49
2023-04-02T23:20:31.959Z,61.64
2023-04-02T23:21:38.661Z,61.64
2023-04-02T23:22:43.973Z,61.63
2023-04-02T23:23:51.974Z,61.47
2023-04-02T23:24:58.668Z,61.62
2023-04-02T23:26:08.784Z,61.70
2023-04-02T23:27:15.474Z,61.61
2023-04-02T23:28:22.337Z,61.69
2023-04-02T23:29:27.934Z,61.80
2023-04-02T23:30:34.810Z,61.54
2023-04-02T23:31:41.779Z,61.59
2023-04-02T23:32:48.925Z,61.98
2023-04-02T23:33:56.235Z,61.88
2023-04-02T23:35:01.810Z,61.89
2023-04-02T23:36:11.881Z,61.85
2023-04-02T23:37:17.987Z,61.89
2023-04-02T23:38:24.716Z,61.81
2023-04-02T23:39:30.157Z,61.71
2023-04-02T23:40:38.443Z,61.75
2023-04-02T23:41:45.028Z,61.65
2023-04-02T23:42:51.803Z,61.67
2023-04-02T23:43:57.474Z,61.82
2023-04-02T23:45:04.218Z,61.68
2023-04-02T23:46:09.674Z,61.74
2023-04-02T23:47:16.408Z,61.74
2023-04-02T23:48:23.519Z,61.51
2023-04-02T23:49:30.240Z,61.57
2023-04-02T23:50:35.931Z,61.55
2023-04-02T23:51:43.044Z,61.57
2023-04-02T23:52:49.002Z,61.53
2023-04-02T23:53:56.805Z,61.60
2023-04-02T23:55:02.195Z,61.64
2023-04-02T23:56:09.282Z,61.64
2023-04-02T23:57:14.867Z,61.48
2023-04-02T23:58:21.670Z,61.26
2023-04-02T23:59:27.040Z,61.22
